sensor_id;sensor_type;location;lat;lon;timestamp;P1;durP1;ratioP1;P2;durP2;ratioP2
61150;SDS011;47029;50.994;2.876;2022-08-24T00:00:11;9.93;;;4.32;;
61150;SDS011;47029;50.994;2.876;2022-08-24T00:02:39;9.27;;;4.05;;
61150;SDS011;47029;50.994;2.876;2022-08-24T00:05:05;11.30;;;4.65;;
61150;SDS011;47029;50.994;2.876;2022-08-24T00:07:32;10.07;;;4.80;;
61150;SDS011;47029;50.994;2.876;2022-08-24T00:09:58;10.27;;;4.65;;
61150;SDS011;47029;50.994;2.876;2022-08-24T00:12:25;10.32;;;4.85;;
61150;SDS011;47029;50.994;2.876;2022-08-24T00:14:51;10.27;;;4.62;;
61150;SDS011;47029;50.994;2.876;2022-08-24T00:17:18;11.45;;;4.82;;
61150;SDS011;47029;50.994;2.876;2022-08-24T00:19:44;10.00;;;5.10;;
61150;SDS011;47029;50.994;2.876;2022-08-24T00:22:11;11.90;;;4.97;;
61150;SDS011;47029;50.994;2.876;2022-08-24T00:24:37;9.10;;;4.40;;
61150;SDS011;47029;50.994;2.876;2022-08-24T00:27:04;11.18;;;4.80;;
61150;SDS011;47029;50.994;2.876;2022-08-24T00:29:31;9.20;;;4.50;;
61150;SDS011;47029;50.994;2.876;2022-08-24T00:31:57;9.43;;;4.43;;
61150;SDS011;47029;50.994;2.876;2022-08-24T00:34:23;10.25;;;4.22;;
61150;SDS011;47029;50.994;2.876;2022-08-24T00:36:50;9.35;;;4.05;;
61150;SDS011;47029;50.994;2.876;2022-08-24T00:39:17;8.55;;;4.10;;
61150;SDS011;47029;50.994;2.876;2022-08-24T00:41:44;10.73;;;3.80;;
61150;SDS011;47029;50.994;2.876;2022-08-24T00:44:12;9.80;;;4.65;;
61150;SDS011;47029;50.994;2.876;2022-08-24T00:49:20;9.38;;;4.10;;
61150;SDS011;47029;50.994;2.876;2022-08-24T00:51:50;9.77;;;4.47;;
61150;SDS011;47029;50.994;2.876;2022-08-24T00:54:23;11.93;;;4.75;;
61150;SDS011;47029;50.994;2.876;2022-08-24T00:56:51;9.75;;;4.12;;
61150;SDS011;47029;50.994;2.876;2022-08-24T00:59:21;11.27;;;4.65;;
61150;SDS011;47029;50.994;2.876;2022-08-24T01:01:50;10.93;;;4.37;;
61150;SDS011;47029;50.994;2.876;2022-08-24T01:04:24;10.00;;;4.72;;
61150;SDS011;47029;50.994;2.876;2022-08-24T01:06:55;10.70;;;4.93;;
61150;SDS011;47029;50.994;2.876;2022-08-24T01:09:22;10.73;;;4.60;;
61150;SDS011;47029;50.994;2.876;2022-08-24T01:11:47;11.18;;;4.57;;
61150;SDS011;47029;50.994;2.876;2022-08-24T01:14:15;11.32;;;4.78;;
61150;SDS011;47029;50.994;2.876;2022-08-24T01:16:42;9.68;;;4.72;;
61150;SDS011;47029;50.994;2.876;2022-08-24T01:19:30;10.80;;;4.35;;
61150;SDS011;47029;50.994;2.876;2022-08-24T01:24:49;10.80;;;4.93;;
61150;SDS011;47029;50.994;2.876;2022-08-24T01:27:16;12.13;;;5.07;;
61150;SDS011;47029;50.994;2.876;2022-08-24T01:29:43;11.23;;;5.43;;
61150;SDS011;47029;50.994;2.876;2022-08-24T01:32:10;10.68;;;4.82;;
61150;SDS011;47029;50.994;2.876;2022-08-24T01:34:37;11.48;;;5.00;;
61150;SDS011;47029;50.994;2.876;2022-08-24T01:37:03;9.98;;;5.05;;
61150;SDS011;47029;50.994;2.876;2022-08-24T01:39:35;11.85;;;4.62;;
61150;SDS011;47029;50.994;2.876;2022-08-24T01:42:04;10.50;;;4.75;;
61150;SDS011;47029;50.994;2.876;2022-08-24T01:44:32;10.55;;;4.90;;
61150;SDS011;47029;50.994;2.876;2022-08-24T01:46:59;9.90;;;4.70;;
61150;SDS011;47029;50.994;2.876;2022-08-24T01:49:27;11.27;;;4.97;;
61150;SDS011;47029;50.994;2.876;2022-08-24T01:51:55;12.43;;;4.90;;
61150;SDS011;47029;50.994;2.876;2022-08-24T01:54:21;10.85;;;5.10;;
61150;SDS011;47029;50.994;2.876;2022-08-24T01:56:48;11.77;;;5.50;;
61150;SDS011;47029;50.994;2.876;2022-08-24T01:59:13;11.68;;;5.32;;
61150;SDS011;47029;50.994;2.876;2022-08-24T02:01:40;11.10;;;4.90;;
61150;SDS011;47029;50.994;2.876;2022-08-24T02:04:10;11.30;;;5.47;;
61150;SDS011;47029;50.994;2.876;2022-08-24T02:06:36;12.65;;;5.25;;
61150;SDS011;47029;50.994;2.876;2022-08-24T02:09:03;11.45;;;5.20;;
61150;SDS011;47029;50.994;2.876;2022-08-24T02:11:29;11.60;;;5.35;;
61150;SDS011;47029;50.994;2.876;2022-08-24T02:13:56;11.77;;;5.50;;
61150;SDS011;47029;50.994;2.876;2022-08-24T02:16:22;10.10;;;5.10;;
61150;SDS011;47029;50.994;2.876;2022-08-24T02:18:48;11.00;;;4.80;;
61150;SDS011;47029;50.994;2.876;2022-08-24T02:21:14;13.05;;;4.93;;
61150;SDS011;47029;50.994;2.876;2022-08-24T02:23:41;9.70;;;4.80;;
61150;SDS011;47029;50.994;2.876;2022-08-24T02:26:07;13.15;;;6.12;;
61150;SDS011;47029;50.994;2.876;2022-08-24T02:28:34;15.02;;;5.50;;
61150;SDS011;47029;50.994;2.876;2022-08-24T02:31:01;11.07;;;4.65;;
61150;SDS011;47029;50.994;2.876;2022-08-24T02:33:32;12.50;;;4.50;;
61150;SDS011;47029;50.994;2.876;2022-08-24T02:35:59;11.98;;;5.00;;
61150;SDS011;47029;50.994;2.876;2022-08-24T02:38:25;14.43;;;4.90;;
61150;SDS011;47029;50.994;2.876;2022-08-24T02:40:51;11.88;;;4.80;;
61150;SDS011;47029;50.994;2.876;2022-08-24T02:43:17;9.65;;;4.70;;
61150;SDS011;47029;50.994;2.876;2022-08-24T02:45:43;12.57;;;4.90;;
61150;SDS011;47029;50.994;2.876;2022-08-24T02:48:10;11.23;;;4.80;;
61150;SDS011;47029;50.994;2.876;2022-08-24T02:50:41;9.77;;;4.55;;
61150;SDS011;47029;50.994;2.876;2022-08-24T02:53:09;12.10;;;4.82;;
61150;SDS011;47029;50.994;2.876;2022-08-24T02:55:38;11.38;;;4.97;;
61150;SDS011;47029;50.994;2.876;2022-08-24T02:58:05;12.98;;;4.72;;
61150;SDS011;47029;50.994;2.876;2022-08-24T03:00:32;10.38;;;4.87;;
61150;SDS011;47029;50.994;2.876;2022-08-24T03:03:00;10.85;;;4.95;;
61150;SDS011;47029;50.994;2.876;2022-08-24T03:05:27;11.25;;;4.60;;
61150;SDS011;47029;50.994;2.876;2022-08-24T03:07:53;10.43;;;4.60;;
61150;SDS011;47029;50.994;2.876;2022-08-24T03:10:19;24.40;;;5.20;;
61150;SDS011;47029;50.994;2.876;2022-08-24T03:12:45;11.95;;;4.80;;
61150;SDS011;47029;50.994;2.876;2022-08-24T03:15:12;11.05;;;5.18;;
61150;SDS011;47029;50.994;2.876;2022-08-24T03:17:39;12.48;;;6.35;;
61150;SDS011;47029;50.994;2.876;2022-08-24T03:20:06;14.20;;;6.75;;
61150;SDS011;47029;50.994;2.876;2022-08-24T03:22:35;12.13;;;5.90;;
61150;SDS011;47029;50.994;2.876;2022-08-24T03:25:01;12.98;;;6.15;;
61150;SDS011;47029;50.994;2.876;2022-08-24T03:27:27;12.50;;;5.90;;
61150;SDS011;47029;50.994;2.876;2022-08-24T03:29:53;13.05;;;5.65;;
61150;SDS011;47029;50.994;2.876;2022-08-24T03:32:19;12.20;;;5.60;;
61150;SDS011;47029;50.994;2.876;2022-08-24T03:34:45;11.12;;;5.12;;
61150;SDS011;47029;50.994;2.876;2022-08-24T03:37:11;27.25;;;6.43;;
61150;SDS011;47029;50.994;2.876;2022-08-24T03:39:37;11.60;;;5.45;;
61150;SDS011;47029;50.994;2.876;2022-08-24T03:42:03;11.48;;;5.35;;
61150;SDS011;47029;50.994;2.876;2022-08-24T03:44:29;11.63;;;5.68;;
61150;SDS011;47029;50.994;2.876;2022-08-24T03:46:55;12.75;;;5.68;;
61150;SDS011;47029;50.994;2.876;2022-08-24T03:49:21;10.95;;;5.60;;
61150;SDS011;47029;50.994;2.876;2022-08-24T03:51:47;11.68;;;5.95;;
61150;SDS011;47029;50.994;2.876;2022-08-24T03:54:14;13.70;;;6.37;;
61150;SDS011;47029;50.994;2.876;2022-08-24T03:56:41;15.82;;;6.50;;
61150;SDS011;47029;50.994;2.876;2022-08-24T03:59:07;35.63;;;9.55;;
61150;SDS011;47029;50.994;2.876;2022-08-24T04:01:34;30.48;;;8.40;;
61150;SDS011;47029;50.994;2.876;2022-08-24T04:04:01;40.53;;;9.02;;
61150;SDS011;47029;50.994;2.876;2022-08-24T04:06:27;42.30;;;9.77;;
61150;SDS011;47029;50.994;2.876;2022-08-24T04:08:53;47.50;;;10.57;;
61150;SDS011;47029;50.994;2.876;2022-08-24T04:11:21;73.00;;;11.98;;
61150;SDS011;47029;50.994;2.876;2022-08-24T04:13:50;94.05;;;13.40;;
61150;SDS011;47029;50.994;2.876;2022-08-24T04:16:18;32.22;;;9.93;;
61150;SDS011;47029;50.994;2.876;2022-08-24T04:18:44;15.80;;;8.57;;
61150;SDS011;47029;50.994;2.876;2022-08-24T04:21:21;16.30;;;8.98;;
61150;SDS011;47029;50.994;2.876;2022-08-24T04:23:52;14.45;;;8.55;;
61150;SDS011;47029;50.994;2.876;2022-08-24T04:26:20;16.75;;;8.50;;
61150;SDS011;47029;50.994;2.876;2022-08-24T04:28:47;14.73;;;7.28;;
61150;SDS011;47029;50.994;2.876;2022-08-24T04:31:13;17.40;;;7.70;;
61150;SDS011;47029;50.994;2.876;2022-08-24T04:33:39;14.35;;;7.03;;
61150;SDS011;47029;50.994;2.876;2022-08-24T04:36:06;13.32;;;7.00;;
61150;SDS011;47029;50.994;2.876;2022-08-24T04:38:34;12.85;;;7.60;;
61150;SDS011;47029;50.994;2.876;2022-08-24T04:41:02;14.00;;;7.53;;
61150;SDS011;47029;50.994;2.876;2022-08-24T04:43:30;18.95;;;8.35;;
61150;SDS011;47029;50.994;2.876;2022-08-24T04:45:55;17.95;;;9.15;;
61150;SDS011;47029;50.994;2.876;2022-08-24T04:48:21;19.23;;;7.93;;
61150;SDS011;47029;50.994;2.876;2022-08-24T04:50:47;17.90;;;7.87;;
61150;SDS011;47029;50.994;2.876;2022-08-24T04:53:13;19.20;;;8.68;;
61150;SDS011;47029;50.994;2.876;2022-08-24T04:55:41;21.27;;;9.60;;
61150;SDS011;47029;50.994;2.876;2022-08-24T04:58:11;19.83;;;9.02;;
61150;SDS011;47029;50.994;2.876;2022-08-24T05:00:39;16.60;;;8.57;;
61150;SDS011;47029;50.994;2.876;2022-08-24T05:03:05;15.80;;;8.10;;
61150;SDS011;47029;50.994;2.876;2022-08-24T05:05:31;14.50;;;7.35;;
61150;SDS011;47029;50.994;2.876;2022-08-24T05:07:58;17.02;;;8.05;;
61150;SDS011;47029;50.994;2.876;2022-08-24T05:10:24;15.70;;;7.85;;
61150;SDS011;47029;50.994;2.876;2022-08-24T05:12:49;15.25;;;7.57;;
61150;SDS011;47029;50.994;2.876;2022-08-24T05:15:15;16.12;;;7.60;;
61150;SDS011;47029;50.994;2.876;2022-08-24T05:17:41;15.77;;;7.20;;
61150;SDS011;47029;50.994;2.876;2022-08-24T05:20:08;17.00;;;7.25;;
61150;SDS011;47029;50.994;2.876;2022-08-24T05:22:35;17.75;;;7.55;;
61150;SDS011;47029;50.994;2.876;2022-08-24T05:25:03;23.35;;;7.45;;
61150;SDS011;47029;50.994;2.876;2022-08-24T05:27:29;14.57;;;6.80;;
61150;SDS011;47029;50.994;2.876;2022-08-24T05:29:56;14.50;;;6.68;;
61150;SDS011;47029;50.994;2.876;2022-08-24T05:32:22;14.48;;;6.78;;
61150;SDS011;47029;50.994;2.876;2022-08-24T05:34:48;14.60;;;7.53;;
61150;SDS011;47029;50.994;2.876;2022-08-24T05:37:14;13.80;;;7.22;;
61150;SDS011;47029;50.994;2.876;2022-08-24T05:39:40;15.05;;;6.93;;
61150;SDS011;47029;50.994;2.876;2022-08-24T05:42:06;13.02;;;7.20;;
61150;SDS011;47029;50.994;2.876;2022-08-24T05:44:32;13.77;;;7.10;;
61150;SDS011;47029;50.994;2.876;2022-08-24T05:46:58;15.05;;;7.90;;
61150;SDS011;47029;50.994;2.876;2022-08-24T05:49:25;16.62;;;7.62;;
61150;SDS011;47029;50.994;2.876;2022-08-24T05:51:51;15.98;;;8.18;;
61150;SDS011;47029;50.994;2.876;2022-08-24T05:54:18;14.48;;;7.30;;
61150;SDS011;47029;50.994;2.876;2022-08-24T05:56:45;12.00;;;6.30;;
61150;SDS011;47029;50.994;2.876;2022-08-24T05:59:11;15.00;;;7.70;;
61150;SDS011;47029;50.994;2.876;2022-08-24T06:01:40;13.07;;;7.18;;
61150;SDS011;47029;50.994;2.876;2022-08-24T06:04:06;15.07;;;7.57;;
61150;SDS011;47029;50.994;2.876;2022-08-24T06:06:33;13.20;;;7.18;;
61150;SDS011;47029;50.994;2.876;2022-08-24T06:08:59;13.60;;;6.72;;
61150;SDS011;47029;50.994;2.876;2022-08-24T06:11:36;15.02;;;7.85;;
61150;SDS011;47029;50.994;2.876;2022-08-24T06:14:05;13.57;;;7.50;;
61150;SDS011;47029;50.994;2.876;2022-08-24T06:16:38;15.38;;;8.05;;
61150;SDS011;47029;50.994;2.876;2022-08-24T06:19:07;15.82;;;8.05;;
61150;SDS011;47029;50.994;2.876;2022-08-24T06:21:35;15.82;;;7.65;;
61150;SDS011;47029;50.994;2.876;2022-08-24T06:24:02;14.35;;;7.62;;
61150;SDS011;47029;50.994;2.876;2022-08-24T06:26:29;13.55;;;8.10;;
61150;SDS011;47029;50.994;2.876;2022-08-24T06:29:13;15.32;;;8.30;;
61150;SDS011;47029;50.994;2.876;2022-08-24T06:31:40;14.63;;;8.27;;
61150;SDS011;47029;50.994;2.876;2022-08-24T06:34:08;14.57;;;7.32;;
61150;SDS011;47029;50.994;2.876;2022-08-24T06:36:35;13.60;;;8.25;;
61150;SDS011;47029;50.994;2.876;2022-08-24T06:39:02;15.27;;;8.30;;
61150;SDS011;47029;50.994;2.876;2022-08-24T06:41:28;15.10;;;7.55;;
61150;SDS011;47029;50.994;2.876;2022-08-24T06:43:54;12.90;;;6.97;;
61150;SDS011;47029;50.994;2.876;2022-08-24T06:46:20;16.20;;;8.55;;
61150;SDS011;47029;50.994;2.876;2022-08-24T06:48:46;14.05;;;7.68;;
61150;SDS011;47029;50.994;2.876;2022-08-24T06:51:13;13.77;;;7.80;;
61150;SDS011;47029;50.994;2.876;2022-08-24T06:53:41;14.10;;;7.70;;
61150;SDS011;47029;50.994;2.876;2022-08-24T06:56:07;17.02;;;7.47;;
61150;SDS011;47029;50.994;2.876;2022-08-24T06:58:33;13.60;;;7.50;;
61150;SDS011;47029;50.994;2.876;2022-08-24T07:01:07;15.68;;;7.62;;
61150;SDS011;47029;50.994;2.876;2022-08-24T07:03:35;16.15;;;7.43;;
61150;SDS011;47029;50.994;2.876;2022-08-24T07:06:02;12.30;;;7.12;;
61150;SDS011;47029;50.994;2.876;2022-08-24T07:08:29;12.37;;;7.12;;
61150;SDS011;47029;50.994;2.876;2022-08-24T07:10:54;13.52;;;7.05;;
61150;SDS011;47029;50.994;2.876;2022-08-24T07:13:20;13.98;;;7.90;;
61150;SDS011;47029;50.994;2.876;2022-08-24T07:15:46;14.10;;;7.80;;
61150;SDS011;47029;50.994;2.876;2022-08-24T07:18:15;16.85;;;7.57;;
61150;SDS011;47029;50.994;2.876;2022-08-24T07:20:42;13.30;;;7.72;;
61150;SDS011;47029;50.994;2.876;2022-08-24T07:23:08;14.68;;;7.78;;
61150;SDS011;47029;50.994;2.876;2022-08-24T07:25:39;12.77;;;7.15;;
61150;SDS011;47029;50.994;2.876;2022-08-24T07:28:06;11.50;;;6.47;;
61150;SDS011;47029;50.994;2.876;2022-08-24T07:30:32;13.18;;;6.90;;
61150;SDS011;47029;50.994;2.876;2022-08-24T07:32:58;11.73;;;6.47;;
61150;SDS011;47029;50.994;2.876;2022-08-24T07:35:25;12.00;;;5.55;;
61150;SDS011;47029;50.994;2.876;2022-08-24T07:37:52;10.98;;;5.80;;
61150;SDS011;47029;50.994;2.876;2022-08-24T07:40:19;12.07;;;6.30;;
61150;SDS011;47029;50.994;2.876;2022-08-24T07:42:46;11.40;;;5.53;;
61150;SDS011;47029;50.994;2.876;2022-08-24T07:45:13;11.52;;;5.50;;
61150;SDS011;47029;50.994;2.876;2022-08-24T07:47:39;12.18;;;5.80;;
61150;SDS011;47029;50.994;2.876;2022-08-24T07:50:06;11.30;;;6.03;;
61150;SDS011;47029;50.994;2.876;2022-08-24T07:52:32;10.65;;;5.50;;
61150;SDS011;47029;50.994;2.876;2022-08-24T07:54:58;11.40;;;5.78;;
61150;SDS011;47029;50.994;2.876;2022-08-24T07:57:24;12.13;;;5.80;;
61150;SDS011;47029;50.994;2.876;2022-08-24T07:59:50;10.88;;;5.95;;
61150;SDS011;47029;50.994;2.876;2022-08-24T08:02:17;13.00;;;6.28;;
61150;SDS011;47029;50.994;2.876;2022-08-24T08:04:43;10.57;;;5.68;;
61150;SDS011;47029;50.994;2.876;2022-08-24T08:07:09;11.43;;;5.72;;
61150;SDS011;47029;50.994;2.876;2022-08-24T08:09:36;12.70;;;6.37;;
61150;SDS011;47029;50.994;2.876;2022-08-24T08:12:02;11.32;;;5.90;;
61150;SDS011;47029;50.994;2.876;2022-08-24T08:14:28;12.05;;;6.60;;
61150;SDS011;47029;50.994;2.876;2022-08-24T08:16:54;11.45;;;5.68;;
61150;SDS011;47029;50.994;2.876;2022-08-24T08:19:20;11.90;;;6.07;;
61150;SDS011;47029;50.994;2.876;2022-08-24T08:21:48;11.20;;;5.40;;
61150;SDS011;47029;50.994;2.876;2022-08-24T08:24:36;12.05;;;5.32;;
61150;SDS011;47029;50.994;2.876;2022-08-24T08:27:03;16.75;;;5.62;;
61150;SDS011;47029;50.994;2.876;2022-08-24T08:29:30;11.48;;;5.47;;
61150;SDS011;47029;50.994;2.876;2022-08-24T08:31:57;11.38;;;5.30;;
61150;SDS011;47029;50.994;2.876;2022-08-24T08:34:24;10.65;;;5.03;;
61150;SDS011;47029;50.994;2.876;2022-08-24T08:36:50;12.55;;;4.97;;
61150;SDS011;47029;50.994;2.876;2022-08-24T08:39:18;10.65;;;4.55;;
61150;SDS011;47029;50.994;2.876;2022-08-24T08:41:55;10.65;;;4.25;;
61150;SDS011;47029;50.994;2.876;2022-08-24T09:01:41;8.30;;;3.00;;
61150;SDS011;47029;50.994;2.876;2022-08-24T09:10:15;7.93;;;2.95;;
61150;SDS011;47029;50.994;2.876;2022-08-24T09:12:58;8.63;;;2.80;;
61150;SDS011;47029;50.994;2.876;2022-08-24T09:16:09;7.20;;;2.83;;
61150;SDS011;47029;50.994;2.876;2022-08-24T09:21:30;7.78;;;2.85;;
61150;SDS011;47029;50.994;2.876;2022-08-24T09:24:19;6.62;;;2.67;;
61150;SDS011;47029;50.994;2.876;2022-08-24T09:29:48;7.00;;;2.80;;
61150;SDS011;47029;50.994;2.876;2022-08-24T09:52:21;10.20;;;3.40;;
61150;SDS011;47029;50.994;2.876;2022-08-24T10:01:13;8.57;;;3.47;;
61150;SDS011;47029;50.994;2.876;2022-08-24T10:07:40;9.40;;;3.50;;
61150;SDS011;47029;50.994;2.876;2022-08-24T10:15:30;9.10;;;4.18;;
61150;SDS011;47029;50.994;2.876;2022-08-24T10:18:22;9.30;;;4.28;;
61150;SDS011;47029;50.994;2.876;2022-08-24T10:26:21;9.35;;;4.25;;
61150;SDS011;47029;50.994;2.876;2022-08-24T10:29:11;11.35;;;4.50;;
61150;SDS011;47029;50.994;2.876;2022-08-24T10:32:06;9.77;;;4.82;;
61150;SDS011;47029;50.994;2.876;2022-08-24T10:43:54;10.38;;;4.90;;
61150;SDS011;47029;50.994;2.876;2022-08-24T10:46:42;12.68;;;4.60;;
61150;SDS011;47029;50.994;2.876;2022-08-24T10:49:23;10.25;;;4.80;;
61150;SDS011;47029;50.994;2.876;2022-08-24T10:52:06;11.48;;;4.45;;
61150;SDS011;47029;50.994;2.876;2022-08-24T10:57:41;10.43;;;4.25;;
61150;SDS011;47029;50.994;2.876;2022-08-24T11:00:27;9.90;;;4.50;;
61150;SDS011;47029;50.994;2.876;2022-08-24T11:03:11;9.68;;;4.62;;
61150;SDS011;47029;50.994;2.876;2022-08-24T11:05:48;11.30;;;4.00;;
61150;SDS011;47029;50.994;2.876;2022-08-24T11:10:44;10.25;;;4.15;;
61150;SDS011;47029;50.994;2.876;2022-08-24T11:13:28;12.52;;;4.32;;
61150;SDS011;47029;50.994;2.876;2022-08-24T11:15:59;10.30;;;4.10;;
61150;SDS011;47029;50.994;2.876;2022-08-24T11:18:44;9.60;;;4.12;;
61150;SDS011;47029;50.994;2.876;2022-08-24T11:24:06;9.27;;;3.95;;
61150;SDS011;47029;50.994;2.876;2022-08-24T11:26:50;10.10;;;3.70;;
61150;SDS011;47029;50.994;2.876;2022-08-24T11:29:29;9.82;;;3.85;;
61150;SDS011;47029;50.994;2.876;2022-08-24T11:32:24;11.05;;;3.97;;
61150;SDS011;47029;50.994;2.876;2022-08-24T11:35:01;11.68;;;4.07;;
61150;SDS011;47029;50.994;2.876;2022-08-24T11:40:00;10.32;;;4.10;;
61150;SDS011;47029;50.994;2.876;2022-08-24T11:42:34;13.30;;;4.50;;
61150;SDS011;47029;50.994;2.876;2022-08-24T11:53:13;10.10;;;3.90;;
61150;SDS011;47029;50.994;2.876;2022-08-24T11:58:37;12.15;;;3.40;;
61150;SDS011;47029;50.994;2.876;2022-08-24T12:01:17;8.88;;;3.42;;
61150;SDS011;47029;50.994;2.876;2022-08-24T12:04:20;9.30;;;3.50;;
61150;SDS011;47029;50.994;2.876;2022-08-24T12:13:04;9.77;;;3.50;;
61150;SDS011;47029;50.994;2.876;2022-08-24T12:16:06;9.73;;;3.40;;
61150;SDS011;47029;50.994;2.876;2022-08-24T12:21:33;9.75;;;3.40;;
61150;SDS011;47029;50.994;2.876;2022-08-24T12:24:06;9.60;;;3.55;;
61150;SDS011;47029;50.994;2.876;2022-08-24T12:27:00;8.20;;;3.53;;
61150;SDS011;47029;50.994;2.876;2022-08-24T12:29:55;10.60;;;3.67;;
61150;SDS011;47029;50.994;2.876;2022-08-24T12:32:27;11.45;;;3.60;;
61150;SDS011;47029;50.994;2.876;2022-08-24T12:37:40;10.23;;;3.90;;
61150;SDS011;47029;50.994;2.876;2022-08-24T12:42:55;10.35;;;4.20;;
61150;SDS011;47029;50.994;2.876;2022-08-24T12:45:44;10.55;;;4.28;;
61150;SDS011;47029;50.994;2.876;2022-08-24T12:51:14;9.93;;;4.07;;
61150;SDS011;47029;50.994;2.876;2022-08-24T12:53:48;11.55;;;4.10;;
61150;SDS011;47029;50.994;2.876;2022-08-24T12:59:29;10.63;;;4.22;;
61150;SDS011;47029;50.994;2.876;2022-08-24T13:02:06;9.70;;;4.12;;
61150;SDS011;47029;50.994;2.876;2022-08-24T13:04:42;10.52;;;3.95;;
61150;SDS011;47029;50.994;2.876;2022-08-24T13:17:49;10.20;;;3.90;;
61150;SDS011;47029;50.994;2.876;2022-08-24T13:23:16;8.68;;;3.35;;
61150;SDS011;47029;50.994;2.876;2022-08-24T13:30:54;10.88;;;3.33;;
61150;SDS011;47029;50.994;2.876;2022-08-24T13:33:57;8.77;;;3.30;;
61150;SDS011;47029;50.994;2.876;2022-08-24T13:42:15;10.40;;;3.08;;
61150;SDS011;47029;50.994;2.876;2022-08-24T13:45:07;10.85;;;3.70;;
61150;SDS011;47029;50.994;2.876;2022-08-24T13:50:34;8.63;;;3.30;;
61150;SDS011;47029;50.994;2.876;2022-08-24T13:55:52;9.85;;;3.97;;
61150;SDS011;47029;50.994;2.876;2022-08-24T13:58:45;7.40;;;2.90;;
61150;SDS011;47029;50.994;2.876;2022-08-24T14:01:23;9.32;;;3.03;;
61150;SDS011;47029;50.994;2.876;2022-08-24T14:06:49;9.48;;;3.20;;
61150;SDS011;47029;50.994;2.876;2022-08-24T14:17:45;8.82;;;3.03;;
61150;SDS011;47029;50.994;2.876;2022-08-24T14:24:06;6.70;;;2.78;;
61150;SDS011;47029;50.994;2.876;2022-08-24T14:42:39;12.32;;;3.25;;
61150;SDS011;47029;50.994;2.876;2022-08-24T14:50:47;7.35;;;2.60;;
61150;SDS011;47029;50.994;2.876;2022-08-24T15:05:05;8.45;;;2.78;;
61150;SDS011;47029;50.994;2.876;2022-08-24T15:10:42;5.35;;;2.30;;
61150;SDS011;47029;50.994;2.876;2022-08-24T15:13:25;7.05;;;2.50;;
61150;SDS011;47029;50.994;2.876;2022-08-24T15:16:02;8.70;;;2.47;;
61150;SDS011;47029;50.994;2.876;2022-08-24T15:28:53;6.57;;;2.42;;
61150;SDS011;47029;50.994;2.876;2022-08-24T15:31:22;7.57;;;2.58;;
61150;SDS011;47029;50.994;2.876;2022-08-24T15:33:57;7.18;;;2.40;;
61150;SDS011;47029;50.994;2.876;2022-08-24T15:36:29;7.43;;;2.40;;
61150;SDS011;47029;50.994;2.876;2022-08-24T15:38:58;6.75;;;2.62;;
61150;SDS011;47029;50.994;2.876;2022-08-24T15:41:29;6.32;;;2.25;;
61150;SDS011;47029;50.994;2.876;2022-08-24T15:44:04;6.55;;;2.47;;
61150;SDS011;47029;50.994;2.876;2022-08-24T15:46:40;7.12;;;2.50;;
61150;SDS011;47029;50.994;2.876;2022-08-24T15:49:07;6.15;;;2.28;;
61150;SDS011;47029;50.994;2.876;2022-08-24T15:56:50;6.95;;;2.50;;
61150;SDS011;47029;50.994;2.876;2022-08-24T15:59:43;5.15;;;2.20;;
61150;SDS011;47029;50.994;2.876;2022-08-24T16:04:59;6.45;;;2.40;;
61150;SDS011;47029;50.994;2.876;2022-08-24T16:13:07;7.53;;;2.60;;
61150;SDS011;47029;50.994;2.876;2022-08-24T16:16:05;6.82;;;2.45;;
61150;SDS011;47029;50.994;2.876;2022-08-24T16:18:51;7.60;;;2.47;;
61150;SDS011;47029;50.994;2.876;2022-08-24T16:24:25;5.97;;;2.40;;
61150;SDS011;47029;50.994;2.876;2022-08-24T16:27:07;6.97;;;2.58;;
61150;SDS011;47029;50.994;2.876;2022-08-24T16:32:22;5.72;;;2.50;;
61150;SDS011;47029;50.994;2.876;2022-08-24T16:37:34;38.28;;;4.53;;
61150;SDS011;47029;50.994;2.876;2022-08-24T16:40:01;11.02;;;2.80;;
61150;SDS011;47029;50.994;2.876;2022-08-24T16:42:28;5.55;;;2.28;;
61150;SDS011;47029;50.994;2.876;2022-08-24T16:44:55;8.60;;;2.70;;
61150;SDS011;47029;50.994;2.876;2022-08-24T16:47:23;14.52;;;2.83;;
61150;SDS011;47029;50.994;2.876;2022-08-24T16:49:50;18.95;;;3.37;;
61150;SDS011;47029;50.994;2.876;2022-08-24T16:52:16;7.90;;;2.60;;
61150;SDS011;47029;50.994;2.876;2022-08-24T16:54:43;8.27;;;2.28;;
61150;SDS011;47029;50.994;2.876;2022-08-24T16:57:17;12.52;;;2.80;;
61150;SDS011;47029;50.994;2.876;2022-08-24T16:59:47;9.13;;;2.78;;
61150;SDS011;47029;50.994;2.876;2022-08-24T17:02:15;7.28;;;2.50;;
61150;SDS011;47029;50.994;2.876;2022-08-24T17:04:41;6.90;;;2.53;;
61150;SDS011;47029;50.994;2.876;2022-08-24T17:07:08;7.93;;;2.90;;
61150;SDS011;47029;50.994;2.876;2022-08-24T17:09:40;9.60;;;2.80;;
61150;SDS011;47029;50.994;2.876;2022-08-24T17:12:08;9.70;;;2.97;;
61150;SDS011;47029;50.994;2.876;2022-08-24T17:14:34;9.48;;;3.15;;
61150;SDS011;47029;50.994;2.876;2022-08-24T17:17:02;9.65;;;3.00;;
61150;SDS011;47029;50.994;2.876;2022-08-24T17:19:34;8.23;;;3.05;;
61150;SDS011;47029;50.994;2.876;2022-08-24T17:22:00;7.47;;;2.85;;
61150;SDS011;47029;50.994;2.876;2022-08-24T17:24:27;7.30;;;2.80;;
61150;SDS011;47029;50.994;2.876;2022-08-24T17:26:53;10.02;;;3.20;;
61150;SDS011;47029;50.994;2.876;2022-08-24T17:29:19;8.43;;;2.90;;
61150;SDS011;47029;50.994;2.876;2022-08-24T17:31:46;10.23;;;3.10;;
61150;SDS011;47029;50.994;2.876;2022-08-24T17:34:15;9.80;;;3.30;;
61150;SDS011;47029;50.994;2.876;2022-08-24T17:36:44;7.97;;;3.40;;
61150;SDS011;47029;50.994;2.876;2022-08-24T17:39:12;10.15;;;3.00;;
61150;SDS011;47029;50.994;2.876;2022-08-24T17:41:39;10.32;;;3.22;;
61150;SDS011;47029;50.994;2.876;2022-08-24T17:44:05;9.30;;;3.12;;
61150;SDS011;47029;50.994;2.876;2022-08-24T17:46:34;9.93;;;3.20;;
61150;SDS011;47029;50.994;2.876;2022-08-24T17:49:00;8.77;;;3.10;;
61150;SDS011;47029;50.994;2.876;2022-08-24T17:51:27;10.82;;;3.30;;
61150;SDS011;47029;50.994;2.876;2022-08-24T17:53:53;9.05;;;3.20;;
61150;SDS011;47029;50.994;2.876;2022-08-24T17:56:19;9.73;;;2.92;;
61150;SDS011;47029;50.994;2.876;2022-08-24T17:58:45;8.85;;;3.10;;
61150;SDS011;47029;50.994;2.876;2022-08-24T18:01:30;7.45;;;3.10;;
61150;SDS011;47029;50.994;2.876;2022-08-24T18:03:56;8.82;;;3.30;;
61150;SDS011;47029;50.994;2.876;2022-08-24T18:06:22;8.50;;;3.20;;
61150;SDS011;47029;50.994;2.876;2022-08-24T18:08:50;9.30;;;3.20;;
61150;SDS011;47029;50.994;2.876;2022-08-24T18:11:16;7.20;;;3.25;;
61150;SDS011;47029;50.994;2.876;2022-08-24T18:13:42;10.55;;;3.90;;
61150;SDS011;47029;50.994;2.876;2022-08-24T18:16:10;10.75;;;3.75;;
61150;SDS011;47029;50.994;2.876;2022-08-24T18:18:40;8.77;;;3.78;;
61150;SDS011;47029;50.994;2.876;2022-08-24T18:21:06;10.52;;;3.60;;
61150;SDS011;47029;50.994;2.876;2022-08-24T18:23:32;10.95;;;4.00;;
61150;SDS011;47029;50.994;2.876;2022-08-24T18:25:58;9.23;;;3.47;;
61150;SDS011;47029;50.994;2.876;2022-08-24T18:28:24;8.85;;;3.60;;
61150;SDS011;47029;50.994;2.876;2022-08-24T18:30:51;10.20;;;3.72;;
61150;SDS011;47029;50.994;2.876;2022-08-24T18:33:17;9.10;;;4.07;;
61150;SDS011;47029;50.994;2.876;2022-08-24T18:35:43;9.38;;;4.28;;
61150;SDS011;47029;50.994;2.876;2022-08-24T18:38:10;9.30;;;3.83;;
61150;SDS011;47029;50.994;2.876;2022-08-24T18:40:38;10.48;;;4.40;;
61150;SDS011;47029;50.994;2.876;2022-08-24T18:43:06;8.98;;;4.40;;
61150;SDS011;47029;50.994;2.876;2022-08-24T18:45:33;10.68;;;4.82;;
61150;SDS011;47029;50.994;2.876;2022-08-24T18:47:59;9.88;;;4.70;;
61150;SDS011;47029;50.994;2.876;2022-08-24T18:50:26;10.27;;;4.37;;
61150;SDS011;47029;50.994;2.876;2022-08-24T18:52:55;11.50;;;4.60;;
61150;SDS011;47029;50.994;2.876;2022-08-24T18:55:23;12.32;;;5.15;;